Terminal Aerodrome Forecast
Issued by NWS Boston, MA

Home | Current Version | Previous Version | Text Only | Print | Product List | Glossary On
Versions: 1 2 3 4 5 6 7 8 9 10 11 12 13 14 15 16 17 18 19 20 21 22 23 24 25 26 27 28 29 30 31 32 33 34 35 36 37 38 39 40 41 42 43 44
853
FTUS41 KBOX 172335
TAFORH
TAF
KORH 172335Z 1800/1824 10007KT 1 1/2SM -SNPL BR OVC015
     FM180500 08008KT 1 1/2SM -SNPL BR OVC003
     FM180800 07009KT 1 1/2SM -FZRAPL BR OVC003
     FM181400 05011G18KT 1SM BR VCSH OVC003
     FM182300 04007KT P6SM OVC003=

USA.gov is the U.S. government's official web portal to all federal, state and local government web resources and services.